Time;durP1;ratioP1;P1;durP2;ratioP2;P2;SDS_P1;SDS_P2;PMS_P1;PMS_P2;Temp;Humidity;BMP_temperature;BMP_pressure;BME280_temperature;BME280_humidity;BME280_pressure;Samples;Min_cycle;Max_cycle;Signal;HPM_P1;HPM_P2
2022/10/29 00:01:57;;;;;;;18.50;10.63;;;8.00;99.90;;;;;;4144924;28;20045;-63
2022/10/29 00:03:58;;;;;;;18.37;11.20;;;8.00;99.90;;;;;;4146376;28;20046;-64
2022/10/29 00:06:02;;;;;;;18.03;10.00;;;8.00;99.90;;;;;;4144740;28;20088;-61
2022/10/29 00:08:04;;;;;;;22.47;11.83;;;8.00;99.90;;;;;;4146671;28;20021;-63
2022/10/29 00:10:05;;;;;;;18.63;10.90;;;8.00;99.90;;;;;;4156496;28;20049;-62
2022/10/29 00:12:07;;;;;;;19.07;11.03;;;8.00;99.90;;;;;;4153702;28;20111;-62
2022/10/29 00:14:08;;;;;;;22.63;10.13;;;8.00;99.90;;;;;;4157660;28;20459;-62
2022/10/29 00:16:15;;;;;;;16.13;9.70;;;8.10;99.90;;;;;;4160910;28;20485;-60
2022/10/29 00:18:16;;;;;;;18.43;10.43;;;8.10;99.90;;;;;;4160724;28;20045;-61
2022/10/29 00:20:19;;;;;;;21.27;11.30;;;8.00;99.90;;;;;;4162833;28;20033;-60
2022/10/29 00:22:20;;;;;;;22.27;12.87;;;8.00;99.90;;;;;;4160838;28;20033;-62
2022/10/29 00:24:22;;;;;;;22.40;13.57;;;8.00;99.90;;;;;;4162915;28;20067;-64
2022/10/29 00:26:24;;;;;;;25.47;13.30;;;8.00;99.90;;;;;;4160554;28;20413;-62
2022/10/29 00:28:26;;;;;;;24.67;14.13;;;7.90;99.90;;;;;;4148856;28;20088;-66
2022/10/29 00:30:27;;;;;;;23.93;12.77;;;7.90;99.90;;;;;;4145162;28;20084;-63
2022/10/29 00:32:28;;;;;;;22.50;13.70;;;7.80;99.90;;;;;;4144597;28;20104;-63
2022/10/29 00:34:29;;;;;;;20.37;12.60;;;7.70;99.90;;;;;;4144012;28;21791;-62
2022/10/29 00:36:30;;;;;;;23.23;13.90;;;7.50;99.90;;;;;;4144108;28;20041;-63
2022/10/29 00:38:33;;;;;;;27.67;14.97;;;7.50;99.90;;;;;;4145024;28;20088;-64
2022/10/29 00:40:37;;;;;;;27.63;15.83;;;7.50;99.90;;;;;;4150419;28;20551;-60
2022/10/29 00:42:38;;;;;;;27.33;14.53;;;7.50;99.90;;;;;;4155166;28;20615;-62
2022/10/29 00:44:40;;;;;;;24.13;14.30;;;7.50;99.90;;;;;;4143357;28;20115;-64
2022/10/29 00:46:45;;;;;;;26.57;15.40;;;7.50;99.90;;;;;;4153221;28;20038;-61
2022/10/29 00:48:51;;;;;;;23.00;14.90;;;7.40;99.90;;;;;;4153891;28;20034;-61
2022/10/29 00:50:54;;;;;;;27.20;15.37;;;7.40;99.90;;;;;;4148752;28;20084;-61
2022/10/29 00:52:56;;;;;;;26.90;14.33;;;7.40;99.90;;;;;;4153253;28;20100;-62
2022/10/29 00:55:01;;;;;;;28.47;14.47;;;7.40;99.90;;;;;;4152459;28;20022;-63
2022/10/29 00:57:10;;;;;;;24.10;13.83;;;7.40;99.90;;;;;;4145028;28;20046;-62
2022/10/29 00:59:14;;;;;;;24.23;13.50;;;7.40;99.90;;;;;;4147596;28;20034;-61
2022/10/29 01:01:15;;;;;;;23.77;13.13;;;7.40;99.90;;;;;;4145069;28;20104;-62
2022/10/29 01:03:16;;;;;;;23.83;14.30;;;7.40;99.90;;;;;;4151416;28;20437;-62
2022/10/29 01:05:20;;;;;;;25.70;16.67;;;7.30;99.90;;;;;;4143626;28;20072;-61
2022/10/29 01:07:21;;;;;;;26.33;15.10;;;7.20;99.90;;;;;;4144214;28;20087;-66
2022/10/29 01:09:22;;;;;;;27.47;16.37;;;7.10;99.90;;;;;;4149626;28;20083;-62
2022/10/29 01:11:26;;;;;;;26.47;16.13;;;7.10;99.90;;;;;;4154101;28;20084;-63
2022/10/29 01:14:25;;;;;;;27.63;15.83;;;7.10;99.90;;;;;;4144114;28;20026;-60
2022/10/29 01:16:47;;;;;;;34.80;19.00;;;7.10;99.90;;;;;;4078479;29;20052;-61
2022/10/29 01:19:00;;;;;;;35.00;18.57;;;7.10;99.90;;;;;;4084252;28;20519;-62
2022/10/29 01:21:22;;;;;;;29.50;16.13;;;7.10;99.90;;;;;;4111792;28;20037;-62
2022/10/29 01:23:47;;;;;;;26.67;15.57;;;7.00;99.90;;;;;;4143501;28;20092;-63
2022/10/29 01:26:06;;;;;;;30.87;14.93;;;6.90;99.90;;;;;;4154097;28;20045;-65
2022/10/29 01:28:23;;;;;;;26.23;14.88;;;6.90;99.90;;;;;;4134680;28;20042;-63
2022/10/29 01:30:33;;;;;;;24.10;14.57;;;6.90;99.90;;;;;;4152410;28;20029;-62
2022/10/29 01:33:04;;;;;;;24.27;14.23;;;6.90;99.90;;;;;;4153312;28;20091;-66
2022/10/29 01:35:17;;;;;;;24.73;14.33;;;6.90;99.90;;;;;;4123421;28;20046;-62
2022/10/29 01:37:34;;;;;;;25.33;13.20;;;6.90;99.90;;;;;;4144801;28;20100;-61
2022/10/29 01:39:56;;;;;;;27.13;14.30;;;6.90;99.90;;;;;;4146856;28;20072;-63
2022/10/29 01:42:16;;;;;;;21.77;13.63;;;6.90;99.90;;;;;;4161674;28;20034;-65
2022/10/29 01:44:23;;;;;;;24.40;14.43;;;6.90;99.90;;;;;;4159872;28;20448;-61
2022/10/29 01:46:41;;;;;;;22.73;15.07;;;6.90;99.90;;;;;;4162877;28;20486;-62
2022/10/29 01:48:46;;;;;;;20.70;13.10;;;6.90;99.90;;;;;;4163410;28;20040;-62
2022/10/29 01:50:52;;;;;;;23.60;14.60;;;6.80;99.90;;;;;;4164105;28;20046;-62
2022/10/29 01:52:54;;;;;;;21.30;13.70;;;6.80;99.90;;;;;;4163618;28;20025;-62
2022/10/29 01:54:56;;;;;;;22.93;13.77;;;6.80;99.90;;;;;;4164875;28;20030;-66
2022/10/29 01:56:59;;;;;;;28.27;13.67;;;6.80;99.90;;;;;;4164069;28;20485;-63
2022/10/29 01:59:03;;;;;;;23.80;12.73;;;6.80;99.90;;;;;;4163906;28;20456;-61
2022/10/29 02:01:13;;;;;;;23.33;13.53;;;6.70;99.90;;;;;;4160562;28;20409;-62
2022/10/29 02:03:22;;;;;;;20.83;13.02;;;6.70;99.90;;;;;;4161092;28;20469;-63
2022/10/29 02:05:26;;;;;;;17.60;10.97;;;6.70;99.90;;;;;;4163209;28;20655;-61
2022/10/29 02:07:50;;;;;;;18.80;11.70;;;6.70;99.90;;;;;;4164276;28;20037;-66
2022/10/29 02:10:10;;;;;;;18.57;11.40;;;6.60;99.90;;;;;;4163206;28;20022;-62
2022/10/29 02:12:25;;;;;;;19.60;11.60;;;6.60;99.90;;;;;;4157632;28;20026;-66
2022/10/29 02:14:35;;;;;;;18.53;11.83;;;6.60;99.90;;;;;;4147430;28;20458;-62
2022/10/29 02:16:36;;;;;;;21.85;13.20;;;6.50;99.90;;;;;;4162136;28;20424;-63
2022/10/29 02:18:46;;;;;;;17.40;11.23;;;6.50;99.90;;;;;;4161076;28;20037;-63
2022/10/29 02:20:48;;;;;;;21.33;12.10;;;6.50;99.90;;;;;;4163214;28;20045;-65
2022/10/29 02:22:49;;;;;;;22.27;12.83;;;6.50;99.90;;;;;;4162793;28;20510;-62
2022/10/29 02:24:51;;;;;;;20.03;12.30;;;6.50;99.90;;;;;;4163403;28;20037;-65
2022/10/29 02:26:53;;;;;;;18.23;11.20;;;6.50;99.90;;;;;;4164084;28;20088;-66
2022/10/29 02:28:54;;;;;;;16.53;11.13;;;6.50;99.90;;;;;;4162879;28;20041;-63
2022/10/29 02:30:55;;;;;;;19.53;11.63;;;6.40;99.90;;;;;;4158840;28;20030;-65
2022/10/29 02:32:56;;;;;;;18.50;10.90;;;6.40;99.90;;;;;;4147223;28;20030;-62
2022/10/29 02:34:58;;;;;;;18.47;11.93;;;6.40;99.90;;;;;;4148681;28;20046;-65
2022/10/29 02:36:59;;;;;;;14.43;10.30;;;6.40;99.90;;;;;;4146422;28;20458;-62
2022/10/29 02:39:00;;;;;;;16.77;11.43;;;6.30;99.90;;;;;;4147219;28;20099;-62
2022/10/29 02:41:01;;;;;;;15.10;9.90;;;6.30;99.90;;;;;;4146731;28;20084;-61
2022/10/29 02:43:03;;;;;;;15.63;9.33;;;6.30;99.90;;;;;;4147932;28;20507;-62
2022/10/29 02:45:04;;;;;;;17.17;10.53;;;6.30;99.90;;;;;;4159087;28;20038;-64
2022/10/29 02:47:07;;;;;;;15.47;10.37;;;6.30;99.90;;;;;;4163725;28;20049;-62
2022/10/29 02:49:08;;;;;;;16.80;10.03;;;6.30;99.90;;;;;;4162024;28;20469;-63
2022/10/29 02:51:09;;;;;;;16.37;9.53;;;6.20;99.90;;;;;;4161257;28;20049;-60
2022/10/29 02:53:11;;;;;;;18.20;10.50;;;6.20;99.90;;;;;;4162838;28;20021;-62
2022/10/29 02:55:12;;;;;;;16.33;9.93;;;6.20;99.90;;;;;;4136672;28;20030;-66
2022/10/29 02:57:13;;;;;;;14.17;10.43;;;6.20;99.90;;;;;;4153989;28;20050;-62
2022/10/29 02:59:14;;;;;;;14.40;10.33;;;6.30;99.90;;;;;;4162756;28;20034;-61
2022/10/29 03:01:15;;;;;;;13.47;10.23;;;6.30;99.90;;;;;;4151894;28;20084;-63
2022/10/29 03:03:16;;;;;;;19.37;10.43;;;6.30;99.90;;;;;;4155402;28;20030;-66
2022/10/29 03:05:17;;;;;;;19.07;10.30;;;6.30;99.90;;;;;;4159952;28;20555;-63
2022/10/29 03:07:18;;;;;;;16.93;10.40;;;6.30;99.90;;;;;;4162931;28;20424;-63
2022/10/29 03:09:21;;;;;;;16.03;10.10;;;6.30;99.90;;;;;;4163964;28;20084;-63
2022/10/29 03:11:22;;;;;;;20.20;10.43;;;6.30;99.90;;;;;;4151223;28;20042;-63
2022/10/29 03:13:23;;;;;;;14.77;9.87;;;6.20;99.90;;;;;;4146714;28;20042;-63
2022/10/29 03:15:25;;;;;;;16.50;10.83;;;6.20;99.90;;;;;;4146338;28;20076;-62
2022/10/29 03:17:26;;;;;;;16.73;10.50;;;6.10;99.90;;;;;;4160608;28;20045;-62
2022/10/29 03:19:27;;;;;;;16.30;10.57;;;6.00;99.90;;;;;;4162619;28;20025;-63
2022/10/29 03:21:28;;;;;;;14.30;9.63;;;6.00;99.90;;;;;;4149525;28;20041;-62
2022/10/29 03:23:29;;;;;;;15.30;10.03;;;6.00;99.90;;;;;;4146441;28;20414;-62
2022/10/29 03:25:30;;;;;;;17.70;9.13;;;5.90;99.90;;;;;;4157693;28;20072;-64
2022/10/29 03:27:31;;;;;;;16.67;10.07;;;6.00;99.90;;;;;;4162331;28;20473;-65
2022/10/29 03:29:32;;;;;;;14.07;9.83;;;5.90;99.90;;;;;;4162005;28;20042;-65
2022/10/29 03:31:34;;;;;;;13.43;8.97;;;5.90;99.90;;;;;;4151797;28;20034;-64
2022/10/29 03:33:35;;;;;;;17.10;9.37;;;5.80;99.90;;;;;;4150742;28;20432;-66
2022/10/29 03:35:36;;;;;;;14.90;9.27;;;5.80;99.90;;;;;;4163475;28;20037;-63
2022/10/29 03:37:37;;;;;;;20.53;11.07;;;5.80;99.90;;;;;;4162284;28;20049;-62
2022/10/29 03:39:38;;;;;;;20.27;10.50;;;5.80;99.90;;;;;;4161280;28;20037;-62
2022/10/29 03:41:39;;;;;;;16.27;11.17;;;5.80;99.90;;;;;;4143871;28;20050;-62
2022/10/29 03:43:41;;;;;;;16.50;9.63;;;5.90;99.90;;;;;;4161565;28;20072;-61
2022/10/29 03:45:42;;;;;;;16.97;11.00;;;5.90;99.90;;;;;;4161513;28;20049;-62
2022/10/29 03:47:43;;;;;;;16.83;11.03;;;5.90;99.90;;;;;;4162941;28;20037;-64
2022/10/29 03:49:44;;;;;;;14.90;10.83;;;5.90;99.90;;;;;;4159636;28;20045;-61
2022/10/29 03:51:45;;;;;;;17.77;10.87;;;5.90;99.90;;;;;;4162063;28;20049;-62
2022/10/29 03:53:46;;;;;;;17.17;9.83;;;5.90;99.90;;;;;;4145148;28;20088;-62
2022/10/29 03:55:52;;;;;;;16.57;10.87;;;5.80;99.90;;;;;;4145974;28;20033;-64
2022/10/29 03:57:53;;;;;;;15.20;10.03;;;5.80;99.90;;;;;;4146072;28;20440;-64
2022/10/29 03:59:55;;;;;;;23.10;10.30;;;5.80;99.90;;;;;;4146343;28;20081;-65
2022/10/29 04:01:56;;;;;;;17.13;9.93;;;5.60;99.90;;;;;;4146922;28;20021;-64
2022/10/29 04:03:57;;;;;;;15.70;10.57;;;5.50;99.90;;;;;;4146170;28;20548;-66
2022/10/29 04:06:00;;;;;;;17.23;10.40;;;5.50;99.90;;;;;;4156046;28;20046;-65
2022/10/29 04:08:02;;;;;;;16.83;10.17;;;5.50;99.90;;;;;;4160817;28;20041;-64
2022/10/29 04:10:04;;;;;;;14.87;9.37;;;5.50;99.90;;;;;;4162466;28;20045;-63
2022/10/29 04:12:06;;;;;;;14.70;10.60;;;5.50;99.90;;;;;;4161262;28;20405;-64
2022/10/29 04:14:07;;;;;;;13.90;10.17;;;5.60;99.90;;;;;;4162065;28;20045;-65
2022/10/29 04:16:08;;;;;;;15.00;10.40;;;5.60;99.90;;;;;;4150682;28;20030;-63
2022/10/29 04:18:10;;;;;;;14.53;9.53;;;5.60;99.90;;;;;;4146706;28;20116;-63
2022/10/29 04:20:11;;;;;;;15.50;9.63;;;5.50;99.90;;;;;;4144424;28;20072;-61
2022/10/29 04:22:12;;;;;;;15.17;9.97;;;5.50;99.90;;;;;;4148909;28;20553;-63
2022/10/29 04:24:13;;;;;;;14.60;9.63;;;5.60;99.90;;;;;;4161657;28;20021;-61
2022/10/29 04:26:15;;;;;;;13.20;9.43;;;5.60;99.90;;;;;;4162743;28;20481;-63
2022/10/29 04:28:16;;;;;;;17.80;10.17;;;5.50;99.90;;;;;;4154497;28;20048;-63
2022/10/29 04:30:17;;;;;;;19.60;10.47;;;5.60;99.90;;;;;;4157344;28;20505;-66
2022/10/29 04:32:18;;;;;;;15.67;9.77;;;5.50;99.90;;;;;;4145499;28;20038;-62
2022/10/29 04:34:19;;;;;;;13.53;9.43;;;5.50;99.90;;;;;;4146116;28;20034;-62
2022/10/29 04:36:20;;;;;;;16.07;10.17;;;5.50;99.90;;;;;;4150948;28;20030;-62
2022/10/29 04:38:21;;;;;;;13.50;8.97;;;5.60;99.90;;;;;;4161276;28;20103;-62
2022/10/29 04:40:23;;;;;;;15.30;9.67;;;5.50;99.90;;;;;;4160030;28;20375;-62
2022/10/29 04:42:24;;;;;;;11.77;8.07;;;5.60;99.90;;;;;;4160414;28;20045;-62
2022/10/29 04:44:25;;;;;;;12.13;7.87;;;5.50;99.90;;;;;;4160449;28;20083;-62
2022/10/29 04:46:27;;;;;;;18.50;11.77;;;5.40;99.90;;;;;;4156527;28;20104;-64
2022/10/29 04:48:28;;;;;;;18.87;12.43;;;5.30;99.90;;;;;;4150088;28;20111;-62
2022/10/29 04:50:30;;;;;;;20.73;11.57;;;5.10;99.90;;;;;;4160880;28;20103;-63
2022/10/29 04:52:31;;;;;;;21.50;12.77;;;5.10;99.90;;;;;;4160505;28;20552;-66
2022/10/29 04:54:32;;;;;;;20.03;12.00;;;5.00;99.90;;;;;;4159280;28;20033;-62
2022/10/29 04:56:33;;;;;;;20.07;11.33;;;4.90;99.90;;;;;;4145697;28;20042;-65
2022/10/29 04:58:35;;;;;;;32.57;15.80;;;4.80;99.90;;;;;;4144566;28;20042;-63
2022/10/29 05:00:36;;;;;;;27.87;15.47;;;4.70;99.90;;;;;;4145155;28;20095;-63
2022/10/29 05:02:37;;;;;;;27.53;15.63;;;4.60;99.90;;;;;;4151397;28;20555;-64
2022/10/29 05:04:38;;;;;;;26.73;16.93;;;4.50;99.90;;;;;;4159797;28;20033;-62
2022/10/29 05:06:39;;;;;;;26.57;15.23;;;4.50;99.90;;;;;;4152560;28;20080;-62
2022/10/29 05:08:41;;;;;;;24.23;14.40;;;4.40;99.90;;;;;;4159451;28;20049;-62
2022/10/29 05:10:42;;;;;;;31.77;14.47;;;4.30;99.90;;;;;;4159371;28;20527;-62
2022/10/29 05:12:43;;;;;;;34.67;15.83;;;4.20;99.90;;;;;;4158597;28;20037;-61
2022/10/29 05:14:45;;;;;;;29.97;15.60;;;4.20;99.90;;;;;;4158362;28;20092;-62
2022/10/29 05:16:46;;;;;;;28.00;15.30;;;4.20;99.90;;;;;;4159993;28;20429;-62
2022/10/29 05:18:47;;;;;;;28.37;15.93;;;4.30;99.90;;;;;;4160980;28;20356;-61
2022/10/29 05:20:52;;;;;;;30.63;17.00;;;4.40;99.90;;;;;;4157341;28;20091;-61
2022/10/29 05:23:05;;;;;;;28.13;15.47;;;4.60;99.90;;;;;;4155381;28;20390;-62
2022/10/29 05:25:06;;;;;;;32.13;15.13;;;4.80;99.90;;;;;;4145271;28;20061;-63
2022/10/29 05:27:07;;;;;;;36.47;19.60;;;4.90;99.90;;;;;;4157404;28;20037;-62
2022/10/29 05:29:08;;;;;;;29.97;15.47;;;4.90;99.90;;;;;;4148242;28;20034;-62
2022/10/29 05:31:09;;;;;;;33.60;17.77;;;4.90;99.90;;;;;;4145838;28;20034;-62
2022/10/29 05:33:13;;;;;;;50.00;23.90;;;5.00;99.90;;;;;;4144359;28;20381;-61
2022/10/29 05:35:14;;;;;;;51.50;24.60;;;5.00;99.90;;;;;;4147036;28;20375;-66
2022/10/29 05:37:15;;;;;;;44.60;23.63;;;5.20;99.90;;;;;;4160497;28;20434;-62
2022/10/29 05:39:17;;;;;;;44.13;22.97;;;5.50;99.90;;;;;;4158285;28;20038;-63
2022/10/29 05:41:18;;;;;;;47.70;22.10;;;5.80;99.90;;;;;;4142897;28;20057;-65
2022/10/29 05:43:19;;;;;;;38.53;18.97;;;6.00;99.90;;;;;;4158558;28;20099;-62
2022/10/29 05:45:20;;;;;;;37.03;19.67;;;6.30;99.90;;;;;;4159746;28;20030;-60
2022/10/29 05:47:22;;;;;;;31.63;17.57;;;6.50;99.90;;;;;;4158542;28;20042;-62
2022/10/29 05:49:23;;;;;;;29.23;17.67;;;6.60;99.90;;;;;;4160301;28;20465;-63
2022/10/29 05:51:24;;;;;;;36.73;18.17;;;6.80;99.90;;;;;;4159538;28;20556;-62
2022/10/29 05:53:25;;;;;;;31.13;17.90;;;7.10;99.90;;;;;;4160800;28;20095;-62
2022/10/29 05:55:27;;;;;;;31.43;17.07;;;7.40;99.90;;;;;;4160468;28;20033;-62
2022/10/29 05:57:28;;;;;;;28.87;16.23;;;7.70;99.90;;;;;;4159570;28;20072;-62
2022/10/29 05:59:29;;;;;;;28.93;15.93;;;8.00;99.90;;;;;;4160357;28;20033;-61
2022/10/29 06:01:30;;;;;;;28.30;14.20;;;8.20;99.90;;;;;;4146373;28;20104;-63
2022/10/29 06:03:32;;;;;;;26.60;13.80;;;8.60;99.90;;;;;;4145145;28;20022;-63
2022/10/29 06:05:33;;;;;;;27.40;13.40;;;8.90;99.90;;;;;;4144354;28;20108;-63
2022/10/29 06:07:34;;;;;;;25.50;13.27;;;9.30;99.90;;;;;;4154617;28;20125;-62
2022/10/29 06:09:35;;;;;;;26.47;13.17;;;9.70;99.90;;;;;;4152184;28;20439;-66
2022/10/29 06:11:37;;;;;;;23.53;13.60;;;10.10;99.90;;;;;;4155542;28;20072;-63
2022/10/29 06:13:38;;;;;;;29.40;12.90;;;10.50;99.90;;;;;;4143381;28;20149;-65
2022/10/29 06:15:39;;;;;;;28.00;15.17;;;10.70;99.90;;;;;;4147635;28;20050;-64
2022/10/29 06:17:42;;;;;;;26.57;15.13;;;10.60;99.90;;;;;;4154867;28;20046;-62
2022/10/29 06:19:43;;;;;;;26.37;15.87;;;10.50;99.90;;;;;;4161165;28;20037;-63
2022/10/29 06:21:44;;;;;;;31.67;15.43;;;10.30;99.90;;;;;;4147311;28;20528;-62
2022/10/29 06:23:45;;;;;;;28.53;15.60;;;10.20;99.90;;;;;;4144783;28;20038;-62
2022/10/29 06:25:46;;;;;;;28.47;16.33;;;10.10;99.90;;;;;;4144262;28;20030;-61
2022/10/29 06:27:47;;;;;;;38.87;18.40;;;10.10;99.90;;;;;;4157426;28;20481;-63
2022/10/29 06:29:48;;;;;;;24.87;16.03;;;10.20;99.90;;;;;;4151842;28;20461;-63
2022/10/29 06:31:49;;;;;;;26.83;14.87;;;10.20;99.90;;;;;;4155755;28;20144;-63
2022/10/29 06:33:50;;;;;;;24.33;15.17;;;10.40;99.90;;;;;;4161804;28;20135;-61
2022/10/29 06:35:52;;;;;;;27.87;15.00;;;10.60;99.90;;;;;;4162164;28;20042;-62
2022/10/29 06:37:53;;;;;;;24.70;14.57;;;10.70;99.90;;;;;;4159929;28;20068;-60
2022/10/29 06:39:54;;;;;;;30.27;16.33;;;10.80;99.90;;;;;;4163294;28;20041;-66
2022/10/29 06:41:55;;;;;;;26.77;15.87;;;11.00;99.90;;;;;;4149978;28;20100;-61
2022/10/29 06:43:56;;;;;;;27.53;16.20;;;11.10;99.90;;;;;;4145802;28;20042;-65
2022/10/29 06:45:57;;;;;;;23.63;14.13;;;11.30;99.90;;;;;;4146747;28;20100;-61
2022/10/29 06:47:59;;;;;;;24.60;14.90;;;11.70;99.90;;;;;;4145613;28;20092;-62
2022/10/29 06:50:00;;;;;;;24.93;15.23;;;11.80;99.90;;;;;;4146704;28;20046;-62
2022/10/29 06:52:01;;;;;;;30.53;16.00;;;11.70;99.90;;;;;;4146260;28;20092;-63
2022/10/29 06:54:02;;;;;;;21.77;13.40;;;12.00;99.90;;;;;;4147525;28;20084;-62
2022/10/29 06:56:03;;;;;;;27.37;13.67;;;11.80;99.90;;;;;;4147051;28;20038;-62
2022/10/29 06:58:09;;;;;;;33.13;13.73;;;12.00;99.90;;;;;;4147279;28;20034;-64
2022/10/29 07:00:10;;;;;;;28.20;12.87;;;12.30;99.90;;;;;;4145605;28;20033;-62
2022/10/29 07:02:12;;;;;;;34.90;14.90;;;12.50;99.90;;;;;;4146619;28;20434;-65
2022/10/29 07:04:13;;;;;;;26.67;14.83;;;12.20;99.90;;;;;;4147092;28;20431;-62
2022/10/29 07:06:14;;;;;;;25.60;13.80;;;12.30;99.90;;;;;;4156789;28;20042;-64
2022/10/29 07:08:15;;;;;;;30.87;13.77;;;12.10;99.90;;;;;;4155746;28;20433;-63
2022/10/29 07:10:16;;;;;;;20.87;14.27;;;12.20;99.90;;;;;;4145583;28;20099;-64
2022/10/29 07:12:17;;;;;;;24.93;13.93;;;11.70;99.90;;;;;;4150376;28;20436;-64
2022/10/29 07:14:18;;;;;;;33.83;14.30;;;11.50;99.90;;;;;;4173188;28;20366;-65
2022/10/29 07:16:19;;;;;;;31.53;15.43;;;11.10;99.90;;;;;;4178549;28;20049;-64
2022/10/29 07:18:21;;;;;;;25.50;15.63;;;11.00;99.90;;;;;;4148784;28;20156;-65
2022/10/29 07:20:22;;;;;;;31.20;16.33;;;11.10;99.90;;;;;;4146929;28;20030;-64
2022/10/29 07:22:23;;;;;;;40.63;16.70;;;11.20;99.90;;;;;;4145856;28;20034;-65
2022/10/29 07:24:24;;;;;;;28.20;15.70;;;11.00;99.90;;;;;;4145876;28;20068;-62
2022/10/29 07:26:25;;;;;;;40.27;15.57;;;10.90;99.90;;;;;;4147095;28;20088;-62
2022/10/29 07:28:26;;;;;;;33.30;16.70;;;10.90;99.90;;;;;;4146027;28;20552;-61
2022/10/29 07:30:27;;;;;;;52.80;18.73;;;11.00;99.90;;;;;;4145602;28;20033;-63
2022/10/29 07:32:28;;;;;;;32.77;17.50;;;11.30;99.90;;;;;;4145622;28;20781;-61
2022/10/29 07:34:30;;;;;;;39.73;18.13;;;11.60;99.90;;;;;;4145638;28;20030;-62
2022/10/29 07:36:31;;;;;;;46.63;16.07;;;11.90;99.90;;;;;;4154289;28;20464;-62
2022/10/29 07:38:32;;;;;;;35.43;15.30;;;12.30;99.90;;;;;;4161456;28;20084;-65
2022/10/29 07:40:33;;;;;;;40.00;16.40;;;12.60;99.90;;;;;;4162439;28;20022;-62
2022/10/29 07:42:34;;;;;;;54.60;18.30;;;12.70;99.90;;;;;;4162522;28;20029;-63
2022/10/29 07:44:35;;;;;;;55.50;17.97;;;12.70;99.90;;;;;;4161649;28;20388;-64
2022/10/29 07:46:37;;;;;;;38.93;16.00;;;12.80;99.90;;;;;;4151028;28;20080;-65
2022/10/29 07:48:38;;;;;;;38.60;15.73;;;12.50;99.90;;;;;;4145572;28;20080;-64
2022/10/29 07:50:39;;;;;;;29.13;12.70;;;12.20;99.90;;;;;;4146577;28;20038;-65
2022/10/29 07:52:40;;;;;;;24.23;13.77;;;12.00;99.90;;;;;;4145497;28;20133;-67
2022/10/29 07:54:41;;;;;;;28.70;14.17;;;11.90;99.90;;;;;;4146358;28;20088;-65
2022/10/29 07:56:42;;;;;;;19.67;12.53;;;12.20;99.90;;;;;;4146750;28;20049;-63
2022/10/29 07:58:43;;;;;;;31.07;13.10;;;12.10;99.90;;;;;;4145405;28;20103;-66
2022/10/29 08:00:45;;;;;;;25.77;15.23;;;12.00;99.90;;;;;;4158009;28;20080;-64
2022/10/29 08:02:51;;;;;;;23.87;14.43;;;11.70;99.90;;;;;;4161539;28;20555;-64
2022/10/29 08:04:53;;;;;;;26.07;14.97;;;11.50;99.90;;;;;;4159710;28;20040;-65
2022/10/29 08:06:54;;;;;;;26.80;12.93;;;11.40;99.90;;;;;;4152559;28;20042;-65
2022/10/29 08:08:56;;;;;;;20.97;13.40;;;11.30;99.90;;;;;;4145197;28;20385;-64
2022/10/29 08:11:02;;;;;;;21.20;12.33;;;11.20;99.90;;;;;;4145425;28;20034;-65
2022/10/29 08:13:04;;;;;;;25.53;13.53;;;11.20;99.90;;;;;;4159332;28;20072;-63
2022/10/29 08:15:06;;;;;;;22.93;12.20;;;11.20;99.90;;;;;;4161882;28;20067;-65
2022/10/29 08:17:07;;;;;;;25.57;12.80;;;11.50;99.90;;;;;;4143599;28;20030;-64
2022/10/29 08:19:09;;;;;;;19.40;11.40;;;11.80;99.90;;;;;;4174383;28;20071;-64
2022/10/29 08:21:10;;;;;;;17.80;9.53;;;12.00;99.90;;;;;;4178500;28;20087;-65
2022/10/29 08:23:12;;;;;;;17.33;9.67;;;12.00;99.90;;;;;;4176942;28;20669;-65
2022/10/29 08:25:14;;;;;;;13.57;8.87;;;12.30;99.90;;;;;;4163968;28;20079;-65
2022/10/29 08:27:15;;;;;;;18.03;10.00;;;12.40;99.90;;;;;;4160840;28;20449;-64
2022/10/29 08:29:16;;;;;;;13.90;7.80;;;12.70;99.90;;;;;;4160859;28;20038;-65
2022/10/29 08:31:18;;;;;;;11.20;8.30;;;12.50;99.90;;;;;;4159197;28;20481;-64
2022/10/29 08:33:19;;;;;;;11.33;7.50;;;12.40;99.90;;;;;;4162073;28;20428;-65
2022/10/29 08:35:20;;;;;;;11.77;7.60;;;12.40;99.90;;;;;;4161160;28;20033;-64
2022/10/29 08:37:21;;;;;;;11.50;7.97;;;12.30;99.90;;;;;;4146403;28;20042;-65
2022/10/29 08:39:23;;;;;;;11.37;7.63;;;12.20;99.90;;;;;;4144060;28;20116;-64
2022/10/29 08:42:05;;;;;;;11.07;7.63;;;12.10;99.90;;;;;;4144916;28;20046;-64
2022/10/29 08:44:25;;;;;;;11.87;7.10;;;11.90;99.90;;;;;;4114882;28;20482;-64
2022/10/29 08:46:46;;;;;;;13.60;8.05;;;12.00;99.90;;;;;;4145732;28;20092;-64
2022/10/29 08:48:53;;;;;;;;;;;11.90;99.90;;;;;;4144741;28;20448;-64
2022/10/29 08:51:29;;;;;;;13.60;7.47;;;11.90;99.90;;;;;;4145502;28;19909;-66
2022/10/29 08:53:52;;;;;;;11.17;6.60;;;12.10;99.90;;;;;;4140518;28;20050;-65
2022/10/29 08:55:53;;;;;;;10.67;6.77;;;12.20;99.90;;;;;;4144687;28;20816;-63
2022/10/29 08:57:58;;;;;;;10.87;6.67;;;12.10;99.90;;;;;;4143780;28;20034;-65
2022/10/29 09:00:12;;;;;;;13.20;7.17;;;12.00;99.90;;;;;;4144698;28;20030;-63
2022/10/29 09:02:16;;;;;;;13.40;8.40;;;11.90;99.90;;;;;;4143652;28;20437;-64
2022/10/29 09:04:34;;;;;;;13.03;8.50;;;11.90;99.90;;;;;;4145059;28;20783;-64
2022/10/29 09:06:51;;;;;;;12.67;8.03;;;12.10;99.90;;;;;;4152529;28;20168;-64
2022/10/29 09:09:09;;;;;;;12.70;8.40;;;12.20;99.90;;;;;;4161278;28;20033;-64
2022/10/29 09:11:36;;;;;;;14.83;8.73;;;12.20;99.90;;;;;;4160685;28;20042;-64
2022/10/29 09:14:33;;;;;;;15.27;9.27;;;12.30;99.90;;;;;;4160513;28;20144;-63
2022/10/29 09:16:53;;;;;;;15.50;8.80;;;12.40;99.90;;;;;;4078648;29;20566;-64
2022/10/29 09:19:00;;;;;;;13.13;9.20;;;12.40;99.90;;;;;;4068928;29;20052;-64
2022/10/29 09:21:26;;;;;;;17.03;10.50;;;12.50;99.90;;;;;;4090767;28;20104;-66
2022/10/29 09:23:39;;;;;;;20.97;10.77;;;12.40;99.90;;;;;;4152569;28;20042;-64
2022/10/29 09:25:58;;;;;;;20.23;11.80;;;12.50;99.90;;;;;;4150773;28;20482;-64
2022/10/29 09:28:24;;;;;;;19.77;11.67;;;12.50;99.90;;;;;;4156557;28;20107;-64
2022/10/29 09:30:29;;;;;;;20.57;13.07;;;12.50;99.90;;;;;;4145553;28;20033;-64
2022/10/29 09:32:38;;;;;;;15.83;11.17;;;12.50;99.90;;;;;;4143342;28;20030;-64
2022/10/29 09:35:14;;;;;;;21.33;12.85;;;12.60;99.90;;;;;;4143827;28;20474;-65
2022/10/29 09:37:27;;;;;;;23.27;14.13;;;12.50;99.90;;;;;;4144244;28;20092;-65
2022/10/29 09:39:37;;;;;;;20.27;13.10;;;12.60;99.90;;;;;;4144266;28;20092;-66
2022/10/29 09:41:39;;;;;;;;;;;12.70;99.90;;;;;;4144498;28;20538;-64
2022/10/29 09:44:01;;;;;;;19.20;11.20;;;12.80;99.90;;;;;;4144162;28;20251;-66
2022/10/29 09:46:34;;;;;;;18.50;11.63;;;12.80;99.90;;;;;;4143949;28;20050;-66
2022/10/29 09:48:50;;;;;;;17.73;11.63;;;12.80;99.90;;;;;;4143881;28;20100;-68
2022/10/29 09:51:05;;;;;;;21.17;12.13;;;12.90;99.90;;;;;;4144837;28;20076;-65
2022/10/29 09:53:07;;;;;;;22.67;13.43;;;12.90;99.90;;;;;;4125808;28;20474;-67
2022/10/29 09:55:24;;;;;;;20.70;12.97;;;12.90;99.90;;;;;;4144046;28;20433;-64
2022/10/29 09:57:28;;;;;;;19.33;12.30;;;12.90;99.90;;;;;;4144189;28;20088;-66
2022/10/29 09:59:36;;;;;;;18.63;12.80;;;12.80;99.90;;;;;;4145313;28;20030;-67
2022/10/29 10:01:38;;;;;;;22.67;13.47;;;12.90;99.90;;;;;;4156481;28;20026;-65
2022/10/29 10:03:44;;;;;;;18.80;12.80;;;13.00;99.90;;;;;;4159238;28;20465;-65
2022/10/29 10:06:04;;;;;;;21.30;13.00;;;13.00;99.90;;;;;;4159196;28;20103;-68
2022/10/29 10:08:09;;;;;;;25.43;12.67;;;13.00;99.90;;;;;;4148296;28;20046;-66
2022/10/29 10:10:22;;;;;;;17.63;11.50;;;13.10;99.90;;;;;;4146121;28;20026;-68
2022/10/29 10:12:27;;;;;;;20.37;11.83;;;13.10;99.90;;;;;;4147632;28;20103;-65
2022/10/29 10:14:30;;;;;;;15.47;11.83;;;13.20;99.90;;;;;;4146890;28;20129;-71
2022/10/29 10:16:32;;;;;;;20.30;12.97;;;13.30;99.90;;;;;;4147051;28;20037;-65
2022/10/29 10:18:41;;;;;;;23.27;12.60;;;13.40;99.90;;;;;;4160655;28;20107;-65
2022/10/29 10:20:45;;;;;;;19.97;11.80;;;13.40;99.90;;;;;;4151871;28;20129;-68
2022/10/29 10:22:46;;;;;;;19.30;11.03;;;13.40;99.90;;;;;;4149477;28;20021;-66
2022/10/29 10:24:47;;;;;;;19.90;10.83;;;13.40;99.90;;;;;;4150881;28;20493;-66
2022/10/29 10:26:48;;;;;;;15.70;11.13;;;13.50;99.90;;;;;;4147535;28;20033;-67
2022/10/29 10:29:04;;;;;;;17.43;11.03;;;13.50;99.90;;;;;;4154138;28;20079;-67
2022/10/29 10:31:14;;;;;;;17.77;11.20;;;13.60;99.90;;;;;;4162732;28;20080;-67
2022/10/29 10:33:23;;;;;;;15.57;11.17;;;13.70;99.90;;;;;;4162893;28;20029;-67
2022/10/29 10:35:27;;;;;;;18.27;12.20;;;13.80;99.90;;;;;;4162744;28;20063;-67
2022/10/29 10:37:32;;;;;;;17.13;10.97;;;13.80;99.90;;;;;;4157585;28;20493;-67
2022/10/29 10:39:45;;;;;;;18.07;10.77;;;13.80;99.90;;;;;;4147312;28;20041;-66
2022/10/29 10:41:49;;;;;;;17.42;11.52;;;13.90;99.90;;;;;;4141964;28;20168;-67